UWLL 151100Z 10004MPS 070V130 9999 BKN041CB 29/17 Q1011 R20/090065 NOSIG RMK QFE748/0997
QNH:(hPa/inHg/mmHg)1011 / 29.85 / 758
QFE:(hPa/inHg/mmHg)995 / 29.39 / 746
Temperature29
Dew Point17
Visibility> 10000
Weather
Cloud CoverBKN (4100);
Transition Altitude4000 ft.
Transition LevelFL60
SQUAWK